sensor_id;sensor_type;location;lat;lon;timestamp;P1;durP1;ratioP1;P2;durP2;ratioP2
75696;SDS011;64312;44.738;20.612;2023-04-24T00:02:22;4.47;;;3.53;;
75696;SDS011;64312;44.738;20.612;2023-04-24T00:04:49;3.50;;;3.05;;
75696;SDS011;64312;44.738;20.612;2023-04-24T00:07:15;3.80;;;2.97;;
75696;SDS011;64312;44.738;20.612;2023-04-24T00:09:42;4.15;;;2.95;;
75696;SDS011;64312;44.738;20.612;2023-04-24T00:12:09;3.67;;;3.15;;
75696;SDS011;64312;44.738;20.612;2023-04-24T00:14:35;5.07;;;3.83;;
75696;SDS011;64312;44.738;20.612;2023-04-24T00:17:01;3.63;;;3.00;;
75696;SDS011;64312;44.738;20.612;2023-04-24T00:19:28;4.18;;;3.15;;
75696;SDS011;64312;44.738;20.612;2023-04-24T00:21:54;5.35;;;3.42;;
75696;SDS011;64312;44.738;20.612;2023-04-24T00:24:19;3.72;;;3.00;;
75696;SDS011;64312;44.738;20.612;2023-04-24T00:26:46;5.78;;;4.55;;
75696;SDS011;64312;44.738;20.612;2023-04-24T00:29:11;8.40;;;5.78;;
75696;SDS011;64312;44.738;20.612;2023-04-24T00:31:37;8.15;;;5.15;;
75696;SDS011;64312;44.738;20.612;2023-04-24T00:34:03;8.27;;;4.28;;
75696;SDS011;64312;44.738;20.612;2023-04-24T00:36:30;4.63;;;3.88;;
75696;SDS011;64312;44.738;20.612;2023-04-24T00:38:56;5.50;;;3.80;;
75696;SDS011;64312;44.738;20.612;2023-04-24T00:41:22;5.10;;;3.88;;
75696;SDS011;64312;44.738;20.612;2023-04-24T00:43:50;4.53;;;3.72;;
75696;SDS011;64312;44.738;20.612;2023-04-24T00:46:17;5.82;;;4.40;;
75696;SDS011;64312;44.738;20.612;2023-04-24T00:48:43;5.32;;;4.00;;
75696;SDS011;64312;44.738;20.612;2023-04-24T00:51:09;5.00;;;3.53;;
75696;SDS011;64312;44.738;20.612;2023-04-24T00:53:35;4.95;;;3.53;;
75696;SDS011;64312;44.738;20.612;2023-04-24T00:56:00;5.22;;;3.97;;
75696;SDS011;64312;44.738;20.612;2023-04-24T00:58:27;4.55;;;3.47;;
75696;SDS011;64312;44.738;20.612;2023-04-24T01:00:54;7.60;;;5.80;;
75696;SDS011;64312;44.738;20.612;2023-04-24T01:03:21;9.80;;;6.45;;
75696;SDS011;64312;44.738;20.612;2023-04-24T01:05:48;9.68;;;6.20;;
75696;SDS011;64312;44.738;20.612;2023-04-24T01:08:14;6.85;;;5.15;;
75696;SDS011;64312;44.738;20.612;2023-04-24T01:10:40;7.35;;;4.90;;
75696;SDS011;64312;44.738;20.612;2023-04-24T01:13:09;7.22;;;5.47;;
75696;SDS011;64312;44.738;20.612;2023-04-24T01:15:35;8.98;;;6.47;;
75696;SDS011;64312;44.738;20.612;2023-04-24T01:18:02;9.18;;;5.53;;
75696;SDS011;64312;44.738;20.612;2023-04-24T01:20:28;8.98;;;6.72;;
75696;SDS011;64312;44.738;20.612;2023-04-24T01:22:55;9.75;;;6.30;;
75696;SDS011;64312;44.738;20.612;2023-04-24T01:25:22;7.05;;;5.13;;
75696;SDS011;64312;44.738;20.612;2023-04-24T01:27:49;6.90;;;5.18;;
75696;SDS011;64312;44.738;20.612;2023-04-24T01:30:16;6.75;;;4.40;;
75696;SDS011;64312;44.738;20.612;2023-04-24T01:32:42;5.70;;;4.45;;
75696;SDS011;64312;44.738;20.612;2023-04-24T01:35:11;6.03;;;4.65;;
75696;SDS011;64312;44.738;20.612;2023-04-24T01:37:37;6.45;;;4.53;;
75696;SDS011;64312;44.738;20.612;2023-04-24T01:40:06;6.03;;;4.10;;
75696;SDS011;64312;44.738;20.612;2023-04-24T01:42:32;5.70;;;3.90;;
75696;SDS011;64312;44.738;20.612;2023-04-24T01:45:01;5.80;;;4.05;;
75696;SDS011;64312;44.738;20.612;2023-04-24T01:47:30;6.32;;;4.13;;
75696;SDS011;64312;44.738;20.612;2023-04-24T01:49:56;7.15;;;4.03;;
75696;SDS011;64312;44.738;20.612;2023-04-24T01:52:22;6.50;;;4.15;;
75696;SDS011;64312;44.738;20.612;2023-04-24T01:54:48;5.05;;;3.97;;
75696;SDS011;64312;44.738;20.612;2023-04-24T01:57:14;6.40;;;3.97;;
75696;SDS011;64312;44.738;20.612;2023-04-24T01:59:40;5.63;;;3.72;;
75696;SDS011;64312;44.738;20.612;2023-04-24T02:02:07;5.97;;;4.25;;
75696;SDS011;64312;44.738;20.612;2023-04-24T02:04:34;4.82;;;3.70;;
75696;SDS011;64312;44.738;20.612;2023-04-24T02:07:00;5.97;;;4.28;;
75696;SDS011;64312;44.738;20.612;2023-04-24T02:09:26;4.38;;;3.58;;
75696;SDS011;64312;44.738;20.612;2023-04-24T02:11:52;4.90;;;3.53;;
75696;SDS011;64312;44.738;20.612;2023-04-24T02:14:17;6.88;;;4.15;;
75696;SDS011;64312;44.738;20.612;2023-04-24T02:16:43;5.50;;;3.80;;
75696;SDS011;64312;44.738;20.612;2023-04-24T02:19:09;5.82;;;4.47;;
75696;SDS011;64312;44.738;20.612;2023-04-24T02:21:35;5.82;;;4.03;;
75696;SDS011;64312;44.738;20.612;2023-04-24T02:24:01;5.43;;;3.97;;
75696;SDS011;64312;44.738;20.612;2023-04-24T02:26:27;5.70;;;3.90;;
75696;SDS011;64312;44.738;20.612;2023-04-24T02:28:53;6.65;;;4.65;;
75696;SDS011;64312;44.738;20.612;2023-04-24T02:31:19;5.95;;;4.07;;
75696;SDS011;64312;44.738;20.612;2023-04-24T02:33:46;5.55;;;4.05;;
75696;SDS011;64312;44.738;20.612;2023-04-24T02:36:12;5.90;;;3.90;;
75696;SDS011;64312;44.738;20.612;2023-04-24T02:38:39;5.85;;;4.03;;
75696;SDS011;64312;44.738;20.612;2023-04-24T02:41:05;6.47;;;4.75;;
75696;SDS011;64312;44.738;20.612;2023-04-24T02:43:31;6.40;;;4.03;;
75696;SDS011;64312;44.738;20.612;2023-04-24T02:45:58;6.28;;;4.20;;
75696;SDS011;64312;44.738;20.612;2023-04-24T02:48:24;7.22;;;4.03;;
75696;SDS011;64312;44.738;20.612;2023-04-24T02:50:50;6.07;;;4.05;;
75696;SDS011;64312;44.738;20.612;2023-04-24T02:53:16;6.47;;;4.40;;
75696;SDS011;64312;44.738;20.612;2023-04-24T02:55:42;7.72;;;4.07;;
75696;SDS011;64312;44.738;20.612;2023-04-24T02:58:07;4.82;;;3.42;;
75696;SDS011;64312;44.738;20.612;2023-04-24T03:00:34;5.68;;;3.80;;
75696;SDS011;64312;44.738;20.612;2023-04-24T03:02:59;8.60;;;5.60;;
75696;SDS011;64312;44.738;20.612;2023-04-24T03:05:25;9.38;;;6.40;;
75696;SDS011;64312;44.738;20.612;2023-04-24T03:07:52;7.75;;;5.90;;
75696;SDS011;64312;44.738;20.612;2023-04-24T03:10:20;9.85;;;6.78;;
75696;SDS011;64312;44.738;20.612;2023-04-24T03:12:47;11.73;;;7.63;;
75696;SDS011;64312;44.738;20.612;2023-04-24T03:15:13;9.32;;;6.60;;
75696;SDS011;64312;44.738;20.612;2023-04-24T03:17:39;8.13;;;5.68;;
75696;SDS011;64312;44.738;20.612;2023-04-24T03:20:05;6.85;;;5.18;;
75696;SDS011;64312;44.738;20.612;2023-04-24T03:22:31;6.97;;;4.75;;
75696;SDS011;64312;44.738;20.612;2023-04-24T03:24:59;7.13;;;4.85;;
75696;SDS011;64312;44.738;20.612;2023-04-24T03:27:24;6.80;;;4.85;;
75696;SDS011;64312;44.738;20.612;2023-04-24T03:29:56;6.60;;;4.18;;
75696;SDS011;64312;44.738;20.612;2023-04-24T03:32:38;8.32;;;5.22;;
75696;SDS011;64312;44.738;20.612;2023-04-24T03:35:08;7.70;;;5.20;;
75696;SDS011;64312;44.738;20.612;2023-04-24T03:37:34;6.78;;;4.70;;
75696;SDS011;64312;44.738;20.612;2023-04-24T03:40:32;5.80;;;4.20;;
75696;SDS011;64312;44.738;20.612;2023-04-24T03:42:59;11.55;;;7.28;;
75696;SDS011;64312;44.738;20.612;2023-04-24T03:45:25;13.27;;;8.40;;
75696;SDS011;64312;44.738;20.612;2023-04-24T03:47:51;9.27;;;7.68;;
75696;SDS011;64312;44.738;20.612;2023-04-24T03:50:17;9.55;;;6.68;;
75696;SDS011;64312;44.738;20.612;2023-04-24T03:52:43;7.43;;;5.75;;
75696;SDS011;64312;44.738;20.612;2023-04-24T03:55:11;7.32;;;5.53;;
75696;SDS011;64312;44.738;20.612;2023-04-24T03:57:42;7.15;;;5.13;;
75696;SDS011;64312;44.738;20.612;2023-04-24T04:00:17;6.13;;;4.55;;
75696;SDS011;64312;44.738;20.612;2023-04-24T04:02:50;4.97;;;4.47;;
75696;SDS011;64312;44.738;20.612;2023-04-24T04:05:15;7.72;;;5.13;;
75696;SDS011;64312;44.738;20.612;2023-04-24T04:07:41;5.40;;;4.43;;
75696;SDS011;64312;44.738;20.612;2023-04-24T04:10:07;5.28;;;3.88;;
75696;SDS011;64312;44.738;20.612;2023-04-24T04:12:35;5.10;;;3.53;;
75696;SDS011;64312;44.738;20.612;2023-04-24T04:15:01;5.03;;;3.53;;
75696;SDS011;64312;44.738;20.612;2023-04-24T04:17:27;4.65;;;3.70;;
75696;SDS011;64312;44.738;20.612;2023-04-24T04:19:53;4.65;;;3.10;;
75696;SDS011;64312;44.738;20.612;2023-04-24T04:22:19;4.47;;;3.42;;
75696;SDS011;64312;44.738;20.612;2023-04-24T04:24:48;6.93;;;3.88;;
75696;SDS011;64312;44.738;20.612;2023-04-24T04:27:19;7.93;;;4.55;;
75696;SDS011;64312;44.738;20.612;2023-04-24T04:29:58;7.43;;;4.65;;
75696;SDS011;64312;44.738;20.612;2023-04-24T04:32:29;5.30;;;3.83;;
75696;SDS011;64312;44.738;20.612;2023-04-24T04:35:02;6.03;;;4.07;;
75696;SDS011;64312;44.738;20.612;2023-04-24T04:37:30;6.47;;;4.22;;
75696;SDS011;64312;44.738;20.612;2023-04-24T04:40:14;5.00;;;3.13;;
75696;SDS011;64312;44.738;20.612;2023-04-24T04:42:50;4.93;;;3.83;;
75696;SDS011;64312;44.738;20.612;2023-04-24T04:45:19;4.80;;;3.78;;
75696;SDS011;64312;44.738;20.612;2023-04-24T04:48:05;4.43;;;3.60;;
75696;SDS011;64312;44.738;20.612;2023-04-24T04:50:34;5.60;;;3.85;;
75696;SDS011;64312;44.738;20.612;2023-04-24T04:53:05;5.22;;;3.75;;
75696;SDS011;64312;44.738;20.612;2023-04-24T04:55:34;5.57;;;4.13;;
75696;SDS011;64312;44.738;20.612;2023-04-24T04:58:09;6.07;;;4.05;;
75696;SDS011;64312;44.738;20.612;2023-04-24T05:00:36;5.40;;;4.05;;
75696;SDS011;64312;44.738;20.612;2023-04-24T05:03:11;5.50;;;3.80;;
75696;SDS011;64312;44.738;20.612;2023-04-24T05:05:37;4.97;;;4.22;;
75696;SDS011;64312;44.738;20.612;2023-04-24T05:08:07;4.97;;;3.90;;
75696;SDS011;64312;44.738;20.612;2023-04-24T05:10:34;6.15;;;3.70;;
75696;SDS011;64312;44.738;20.612;2023-04-24T05:13:02;6.65;;;4.20;;
75696;SDS011;64312;44.738;20.612;2023-04-24T05:15:29;5.35;;;3.88;;
75696;SDS011;64312;44.738;20.612;2023-04-24T05:17:56;5.57;;;3.90;;
75696;SDS011;64312;44.738;20.612;2023-04-24T05:20:22;4.63;;;3.60;;
75696;SDS011;64312;44.738;20.612;2023-04-24T05:22:48;5.50;;;4.28;;
75696;SDS011;64312;44.738;20.612;2023-04-24T05:25:14;8.45;;;5.50;;
75696;SDS011;64312;44.738;20.612;2023-04-24T05:27:46;7.97;;;5.43;;
75696;SDS011;64312;44.738;20.612;2023-04-24T05:30:14;7.22;;;5.63;;
75696;SDS011;64312;44.738;20.612;2023-04-24T05:32:40;7.95;;;5.57;;
75696;SDS011;64312;44.738;20.612;2023-04-24T05:35:06;6.93;;;5.20;;
75696;SDS011;64312;44.738;20.612;2023-04-24T05:37:32;6.53;;;4.95;;
75696;SDS011;64312;44.738;20.612;2023-04-24T05:39:59;8.20;;;5.68;;
75696;SDS011;64312;44.738;20.612;2023-04-24T05:42:24;7.95;;;5.78;;
75696;SDS011;64312;44.738;20.612;2023-04-24T05:44:50;9.95;;;5.78;;
75696;SDS011;64312;44.738;20.612;2023-04-24T05:47:16;9.60;;;5.93;;
75696;SDS011;64312;44.738;20.612;2023-04-24T05:49:42;6.88;;;5.35;;
75696;SDS011;64312;44.738;20.612;2023-04-24T05:52:07;9.15;;;5.70;;
75696;SDS011;64312;44.738;20.612;2023-04-24T05:54:35;9.27;;;5.85;;
75696;SDS011;64312;44.738;20.612;2023-04-24T05:57:01;7.72;;;5.80;;
75696;SDS011;64312;44.738;20.612;2023-04-24T05:59:53;11.75;;;5.32;;
75696;SDS011;64312;44.738;20.612;2023-04-24T06:02:20;11.02;;;6.18;;
75696;SDS011;64312;44.738;20.612;2023-04-24T06:04:45;9.45;;;5.50;;
75696;SDS011;64312;44.738;20.612;2023-04-24T06:07:11;7.07;;;4.65;;
75696;SDS011;64312;44.738;20.612;2023-04-24T06:09:38;6.55;;;5.40;;
75696;SDS011;64312;44.738;20.612;2023-04-24T06:12:04;9.73;;;6.05;;
75696;SDS011;64312;44.738;20.612;2023-04-24T06:14:45;9.43;;;6.10;;
75696;SDS011;64312;44.738;20.612;2023-04-24T06:17:18;9.82;;;6.25;;
75696;SDS011;64312;44.738;20.612;2023-04-24T06:19:45;7.03;;;5.32;;
75696;SDS011;64312;44.738;20.612;2023-04-24T06:22:10;8.90;;;5.57;;
75696;SDS011;64312;44.738;20.612;2023-04-24T06:24:36;7.93;;;5.30;;
75696;SDS011;64312;44.738;20.612;2023-04-24T06:27:02;7.10;;;5.32;;
75696;SDS011;64312;44.738;20.612;2023-04-24T06:29:28;7.97;;;5.68;;
75696;SDS011;64312;44.738;20.612;2023-04-24T06:31:53;9.50;;;5.97;;
75696;SDS011;64312;44.738;20.612;2023-04-24T06:34:19;10.25;;;6.22;;
75696;SDS011;64312;44.738;20.612;2023-04-24T06:36:46;8.02;;;5.70;;
75696;SDS011;64312;44.738;20.612;2023-04-24T06:39:12;6.78;;;5.53;;
75696;SDS011;64312;44.738;20.612;2023-04-24T06:41:37;10.20;;;6.78;;
75696;SDS011;64312;44.738;20.612;2023-04-24T06:44:03;9.77;;;5.72;;
75696;SDS011;64312;44.738;20.612;2023-04-24T06:46:29;8.20;;;5.80;;
75696;SDS011;64312;44.738;20.612;2023-04-24T06:48:55;6.22;;;5.22;;
75696;SDS011;64312;44.738;20.612;2023-04-24T06:51:22;9.45;;;5.40;;
75696;SDS011;64312;44.738;20.612;2023-04-24T06:53:49;8.10;;;5.30;;
75696;SDS011;64312;44.738;20.612;2023-04-24T06:56:15;6.43;;;5.07;;
75696;SDS011;64312;44.738;20.612;2023-04-24T06:58:41;7.55;;;5.85;;
75696;SDS011;64312;44.738;20.612;2023-04-24T07:01:07;9.02;;;5.55;;
75696;SDS011;64312;44.738;20.612;2023-04-24T07:03:32;6.50;;;4.80;;
75696;SDS011;64312;44.738;20.612;2023-04-24T07:05:58;5.50;;;4.88;;
75696;SDS011;64312;44.738;20.612;2023-04-24T07:08:24;6.43;;;4.75;;
75696;SDS011;64312;44.738;20.612;2023-04-24T07:10:50;7.22;;;5.10;;
75696;SDS011;64312;44.738;20.612;2023-04-24T07:13:16;9.23;;;5.63;;
75696;SDS011;64312;44.738;20.612;2023-04-24T07:15:42;5.95;;;4.55;;
75696;SDS011;64312;44.738;20.612;2023-04-24T07:18:08;5.63;;;4.60;;
75696;SDS011;64312;44.738;20.612;2023-04-24T07:20:34;7.28;;;5.07;;
75696;SDS011;64312;44.738;20.612;2023-04-24T07:23:00;6.00;;;4.72;;
75696;SDS011;64312;44.738;20.612;2023-04-24T07:25:26;5.30;;;4.32;;
75696;SDS011;64312;44.738;20.612;2023-04-24T07:27:52;5.28;;;3.97;;
75696;SDS011;64312;44.738;20.612;2023-04-24T07:30:18;6.03;;;4.82;;
75696;SDS011;64312;44.738;20.612;2023-04-24T07:32:43;5.15;;;4.03;;
75696;SDS011;64312;44.738;20.612;2023-04-24T07:35:09;6.43;;;5.00;;
75696;SDS011;64312;44.738;20.612;2023-04-24T07:37:35;9.20;;;5.75;;
75696;SDS011;64312;44.738;20.612;2023-04-24T07:40:01;6.70;;;4.95;;
75696;SDS011;64312;44.738;20.612;2023-04-24T07:42:28;6.88;;;5.40;;
75696;SDS011;64312;44.738;20.612;2023-04-24T07:44:55;7.43;;;5.35;;
75696;SDS011;64312;44.738;20.612;2023-04-24T07:47:21;9.25;;;5.95;;
75696;SDS011;64312;44.738;20.612;2023-04-24T07:49:47;9.18;;;5.85;;
75696;SDS011;64312;44.738;20.612;2023-04-24T07:52:13;6.93;;;5.50;;
75696;SDS011;64312;44.738;20.612;2023-04-24T07:54:38;7.80;;;5.20;;
75696;SDS011;64312;44.738;20.612;2023-04-24T07:57:04;5.93;;;5.00;;
75696;SDS011;64312;44.738;20.612;2023-04-24T07:59:31;7.72;;;5.45;;
75696;SDS011;64312;44.738;20.612;2023-04-24T08:01:57;9.23;;;5.55;;
75696;SDS011;64312;44.738;20.612;2023-04-24T08:04:23;7.35;;;5.50;;
75696;SDS011;64312;44.738;20.612;2023-04-24T08:06:49;9.98;;;5.20;;
75696;SDS011;64312;44.738;20.612;2023-04-24T08:09:15;8.50;;;5.63;;
75696;SDS011;64312;44.738;20.612;2023-04-24T08:11:40;6.72;;;4.63;;
75696;SDS011;64312;44.738;20.612;2023-04-24T08:14:06;6.75;;;5.07;;
75696;SDS011;64312;44.738;20.612;2023-04-24T08:16:32;7.75;;;5.35;;
75696;SDS011;64312;44.738;20.612;2023-04-24T08:18:58;8.32;;;5.55;;
75696;SDS011;64312;44.738;20.612;2023-04-24T08:21:24;6.43;;;4.65;;
75696;SDS011;64312;44.738;20.612;2023-04-24T08:23:51;7.57;;;4.95;;
75696;SDS011;64312;44.738;20.612;2023-04-24T08:26:17;6.53;;;5.07;;
75696;SDS011;64312;44.738;20.612;2023-04-24T08:28:42;8.25;;;4.80;;
75696;SDS011;64312;44.738;20.612;2023-04-24T08:31:08;7.95;;;5.13;;
75696;SDS011;64312;44.738;20.612;2023-04-24T08:33:33;6.32;;;4.47;;
75696;SDS011;64312;44.738;20.612;2023-04-24T08:36:02;7.53;;;5.40;;
75696;SDS011;64312;44.738;20.612;2023-04-24T08:38:29;5.88;;;4.82;;
75696;SDS011;64312;44.738;20.612;2023-04-24T08:40:54;6.45;;;4.55;;
75696;SDS011;64312;44.738;20.612;2023-04-24T08:43:23;7.38;;;4.88;;
75696;SDS011;64312;44.738;20.612;2023-04-24T08:45:52;6.95;;;4.85;;
75696;SDS011;64312;44.738;20.612;2023-04-24T08:48:20;6.85;;;4.82;;
75696;SDS011;64312;44.738;20.612;2023-04-24T08:50:48;13.00;;;6.57;;
75696;SDS011;64312;44.738;20.612;2023-04-24T08:53:18;8.15;;;5.15;;
75696;SDS011;64312;44.738;20.612;2023-04-24T08:55:46;9.40;;;4.93;;
75696;SDS011;64312;44.738;20.612;2023-04-24T08:58:13;5.60;;;4.60;;
75696;SDS011;64312;44.738;20.612;2023-04-24T09:00:41;6.63;;;4.50;;
75696;SDS011;64312;44.738;20.612;2023-04-24T09:03:15;7.85;;;5.00;;
75696;SDS011;64312;44.738;20.612;2023-04-24T09:05:44;5.57;;;4.60;;
75696;SDS011;64312;44.738;20.612;2023-04-24T09:08:15;4.97;;;4.40;;
75696;SDS011;64312;44.738;20.612;2023-04-24T09:10:44;7.68;;;4.45;;
75696;SDS011;64312;44.738;20.612;2023-04-24T09:13:10;6.22;;;4.43;;
75696;SDS011;64312;44.738;20.612;2023-04-24T09:15:39;6.25;;;4.88;;
75696;SDS011;64312;44.738;20.612;2023-04-24T09:18:05;6.28;;;4.40;;
75696;SDS011;64312;44.738;20.612;2023-04-24T09:20:31;6.88;;;5.63;;
75696;SDS011;64312;44.738;20.612;2023-04-24T09:22:57;7.82;;;4.90;;
75696;SDS011;64312;44.738;20.612;2023-04-24T09:25:33;5.75;;;4.50;;
75696;SDS011;64312;44.738;20.612;2023-04-24T09:28:02;7.75;;;4.72;;
75696;SDS011;64312;44.738;20.612;2023-04-24T09:30:28;5.93;;;4.63;;
75696;SDS011;64312;44.738;20.612;2023-04-24T09:33:14;5.85;;;4.53;;
75696;SDS011;64312;44.738;20.612;2023-04-24T09:35:41;4.88;;;4.38;;
75696;SDS011;64312;44.738;20.612;2023-04-24T09:38:08;5.38;;;4.28;;
75696;SDS011;64312;44.738;20.612;2023-04-24T09:40:34;6.47;;;4.55;;
75696;SDS011;64312;44.738;20.612;2023-04-24T09:43:00;5.88;;;4.13;;
75696;SDS011;64312;44.738;20.612;2023-04-24T09:45:28;4.38;;;3.90;;
75696;SDS011;64312;44.738;20.612;2023-04-24T09:48:00;5.18;;;4.28;;
75696;SDS011;64312;44.738;20.612;2023-04-24T09:50:26;5.95;;;4.20;;
75696;SDS011;64312;44.738;20.612;2023-04-24T09:52:58;6.35;;;4.72;;
75696;SDS011;64312;44.738;20.612;2023-04-24T09:55:27;6.25;;;5.10;;
75696;SDS011;64312;44.738;20.612;2023-04-24T09:57:56;6.47;;;4.35;;
75696;SDS011;64312;44.738;20.612;2023-04-24T10:00:29;5.65;;;4.57;;
75696;SDS011;64312;44.738;20.612;2023-04-24T10:02:57;5.50;;;4.57;;
75696;SDS011;64312;44.738;20.612;2023-04-24T10:08:00;6.15;;;4.60;;
75696;SDS011;64312;44.738;20.612;2023-04-24T10:10:34;7.80;;;5.13;;
75696;SDS011;64312;44.738;20.612;2023-04-24T10:13:03;4.90;;;3.97;;
75696;SDS011;64312;44.738;20.612;2023-04-24T10:15:29;5.50;;;4.80;;
75696;SDS011;64312;44.738;20.612;2023-04-24T10:17:57;5.55;;;4.28;;
75696;SDS011;64312;44.738;20.612;2023-04-24T10:20:24;5.80;;;4.43;;
75696;SDS011;64312;44.738;20.612;2023-04-24T10:22:54;6.57;;;4.97;;
75696;SDS011;64312;44.738;20.612;2023-04-24T10:25:20;7.20;;;5.75;;
75696;SDS011;64312;44.738;20.612;2023-04-24T10:27:51;6.22;;;5.20;;
75696;SDS011;64312;44.738;20.612;2023-04-24T10:30:18;6.47;;;5.30;;
75696;SDS011;64312;44.738;20.612;2023-04-24T10:32:45;7.57;;;5.20;;
75696;SDS011;64312;44.738;20.612;2023-04-24T10:35:14;7.82;;;5.57;;
75696;SDS011;64312;44.738;20.612;2023-04-24T10:38:01;8.07;;;4.85;;
75696;SDS011;64312;44.738;20.612;2023-04-24T10:40:31;6.00;;;4.40;;
75696;SDS011;64312;44.738;20.612;2023-04-24T10:42:58;6.68;;;4.80;;
75696;SDS011;64312;44.738;20.612;2023-04-24T10:45:25;5.47;;;4.57;;
75696;SDS011;64312;44.738;20.612;2023-04-24T10:47:52;6.60;;;5.20;;
75696;SDS011;64312;44.738;20.612;2023-04-24T10:50:18;8.90;;;4.95;;
75696;SDS011;64312;44.738;20.612;2023-04-24T10:52:47;6.07;;;4.82;;
75696;SDS011;64312;44.738;20.612;2023-04-24T10:55:17;8.43;;;5.15;;
75696;SDS011;64312;44.738;20.612;2023-04-24T10:58:06;5.60;;;4.38;;
75696;SDS011;64312;44.738;20.612;2023-04-24T11:00:32;5.10;;;4.13;;
75696;SDS011;64312;44.738;20.612;2023-04-24T11:02:58;5.63;;;4.22;;
75696;SDS011;64312;44.738;20.612;2023-04-24T11:05:48;6.65;;;4.28;;
75696;SDS011;64312;44.738;20.612;2023-04-24T11:08:21;6.25;;;5.28;;
75696;SDS011;64312;44.738;20.612;2023-04-24T11:10:55;5.47;;;4.95;;
75696;SDS011;64312;44.738;20.612;2023-04-24T11:18:45;6.63;;;5.03;;
75696;SDS011;64312;44.738;20.612;2023-04-24T11:21:18;6.75;;;4.50;;
75696;SDS011;64312;44.738;20.612;2023-04-24T11:23:47;6.13;;;4.95;;
75696;SDS011;64312;44.738;20.612;2023-04-24T11:26:16;5.30;;;4.28;;
75696;SDS011;64312;44.738;20.612;2023-04-24T11:29:06;6.25;;;4.55;;
75696;SDS011;64312;44.738;20.612;2023-04-24T11:31:39;5.40;;;4.80;;
75696;SDS011;64312;44.738;20.612;2023-04-24T11:34:14;7.18;;;5.68;;
75696;SDS011;64312;44.738;20.612;2023-04-24T11:36:45;5.68;;;5.05;;
75696;SDS011;64312;44.738;20.612;2023-04-24T11:39:13;7.72;;;6.10;;
75696;SDS011;64312;44.738;20.612;2023-04-24T11:41:39;7.05;;;5.78;;
75696;SDS011;64312;44.738;20.612;2023-04-24T11:44:09;7.07;;;5.47;;
75696;SDS011;64312;44.738;20.612;2023-04-24T11:46:35;6.07;;;5.07;;
75696;SDS011;64312;44.738;20.612;2023-04-24T11:49:03;6.10;;;4.55;;
75696;SDS011;64312;44.738;20.612;2023-04-24T11:51:28;5.55;;;5.00;;
75696;SDS011;64312;44.738;20.612;2023-04-24T11:53:54;5.25;;;4.50;;
75696;SDS011;64312;44.738;20.612;2023-04-24T11:56:21;8.10;;;5.30;;
75696;SDS011;64312;44.738;20.612;2023-04-24T11:58:48;8.23;;;5.53;;
75696;SDS011;64312;44.738;20.612;2023-04-24T12:01:13;7.25;;;5.20;;
75696;SDS011;64312;44.738;20.612;2023-04-24T12:03:39;6.25;;;5.03;;
75696;SDS011;64312;44.738;20.612;2023-04-24T12:06:09;6.07;;;4.85;;
75696;SDS011;64312;44.738;20.612;2023-04-24T12:08:36;7.65;;;5.47;;
75696;SDS011;64312;44.738;20.612;2023-04-24T12:11:02;6.47;;;5.57;;
75696;SDS011;64312;44.738;20.612;2023-04-24T12:13:30;6.03;;;4.95;;
75696;SDS011;64312;44.738;20.612;2023-04-24T12:15:59;5.95;;;5.05;;
75696;SDS011;64312;44.738;20.612;2023-04-24T12:18:27;6.63;;;5.05;;
75696;SDS011;64312;44.738;20.612;2023-04-24T12:20:52;5.85;;;4.50;;
75696;SDS011;64312;44.738;20.612;2023-04-24T12:23:34;5.30;;;4.68;;
75696;SDS011;64312;44.738;20.612;2023-04-24T12:26:03;6.25;;;4.57;;
75696;SDS011;64312;44.738;20.612;2023-04-24T12:28:36;6.55;;;4.53;;
75696;SDS011;64312;44.738;20.612;2023-04-24T12:31:03;6.07;;;4.97;;
75696;SDS011;64312;44.738;20.612;2023-04-24T12:33:32;5.47;;;4.38;;
75696;SDS011;64312;44.738;20.612;2023-04-24T12:35:59;5.07;;;4.40;;
75696;SDS011;64312;44.738;20.612;2023-04-24T12:38:26;5.30;;;4.50;;
75696;SDS011;64312;44.738;20.612;2023-04-24T12:41:04;5.70;;;4.82;;
75696;SDS011;64312;44.738;20.612;2023-04-24T12:43:34;5.68;;;4.30;;
75696;SDS011;64312;44.738;20.612;2023-04-24T12:46:00;6.97;;;5.10;;
75696;SDS011;64312;44.738;20.612;2023-04-24T12:48:27;5.97;;;4.18;;
75696;SDS011;64312;44.738;20.612;2023-04-24T12:50:53;5.47;;;4.65;;
75696;SDS011;64312;44.738;20.612;2023-04-24T12:53:20;5.65;;;4.82;;
75696;SDS011;64312;44.738;20.612;2023-04-24T12:55:45;6.57;;;5.22;;
75696;SDS011;64312;44.738;20.612;2023-04-24T12:58:12;6.05;;;4.78;;
75696;SDS011;64312;44.738;20.612;2023-04-24T13:00:38;5.82;;;4.40;;
75696;SDS011;64312;44.738;20.612;2023-04-24T13:03:04;9.32;;;4.90;;
75696;SDS011;64312;44.738;20.612;2023-04-24T13:05:30;5.55;;;4.40;;
75696;SDS011;64312;44.738;20.612;2023-04-24T13:07:56;5.53;;;4.50;;
75696;SDS011;64312;44.738;20.612;2023-04-24T13:10:22;5.03;;;4.53;;
75696;SDS011;64312;44.738;20.612;2023-04-24T13:12:48;5.22;;;4.68;;
75696;SDS011;64312;44.738;20.612;2023-04-24T13:15:14;5.85;;;4.45;;
75696;SDS011;64312;44.738;20.612;2023-04-24T13:17:40;5.45;;;4.75;;
75696;SDS011;64312;44.738;20.612;2023-04-24T13:20:05;7.97;;;4.90;;
75696;SDS011;64312;44.738;20.612;2023-04-24T13:22:32;5.35;;;4.07;;
75696;SDS011;64312;44.738;20.612;2023-04-24T13:24:57;5.57;;;4.85;;
75696;SDS011;64312;44.738;20.612;2023-04-24T13:27:23;5.60;;;4.07;;
75696;SDS011;64312;44.738;20.612;2023-04-24T13:29:48;5.85;;;4.38;;
75696;SDS011;64312;44.738;20.612;2023-04-24T13:32:14;5.10;;;4.28;;
75696;SDS011;64312;44.738;20.612;2023-04-24T13:34:40;5.45;;;4.60;;
75696;SDS011;64312;44.738;20.612;2023-04-24T13:37:06;5.38;;;4.30;;
75696;SDS011;64312;44.738;20.612;2023-04-24T13:39:33;8.10;;;4.80;;
75696;SDS011;64312;44.738;20.612;2023-04-24T13:41:59;5.75;;;4.03;;
75696;SDS011;64312;44.738;20.612;2023-04-24T13:44:24;6.05;;;3.65;;
75696;SDS011;64312;44.738;20.612;2023-04-24T13:46:52;5.28;;;3.80;;
75696;SDS011;64312;44.738;20.612;2023-04-24T13:49:19;5.53;;;4.32;;
75696;SDS011;64312;44.738;20.612;2023-04-24T13:51:47;5.50;;;3.40;;
75696;SDS011;64312;44.738;20.612;2023-04-24T13:54:12;5.90;;;3.78;;
75696;SDS011;64312;44.738;20.612;2023-04-24T13:56:41;5.93;;;3.88;;
75696;SDS011;64312;44.738;20.612;2023-04-24T13:59:07;4.03;;;3.50;;
75696;SDS011;64312;44.738;20.612;2023-04-24T14:01:32;6.22;;;3.33;;
75696;SDS011;64312;44.738;20.612;2023-04-24T14:03:58;3.75;;;3.30;;
75696;SDS011;64312;44.738;20.612;2023-04-24T14:06:25;4.35;;;3.85;;
75696;SDS011;64312;44.738;20.612;2023-04-24T14:08:51;4.38;;;3.78;;
75696;SDS011;64312;44.738;20.612;2023-04-24T14:11:17;5.05;;;3.63;;
75696;SDS011;64312;44.738;20.612;2023-04-24T14:13:43;4.47;;;3.40;;
75696;SDS011;64312;44.738;20.612;2023-04-24T14:16:10;3.92;;;3.30;;
75696;SDS011;64312;44.738;20.612;2023-04-24T14:18:36;4.65;;;3.90;;
75696;SDS011;64312;44.738;20.612;2023-04-24T14:21:05;5.30;;;3.67;;
75696;SDS011;64312;44.738;20.612;2023-04-24T14:23:31;4.40;;;3.40;;
75696;SDS011;64312;44.738;20.612;2023-04-24T14:25:57;5.22;;;3.88;;
75696;SDS011;64312;44.738;20.612;2023-04-24T14:28:23;5.68;;;4.00;;
75696;SDS011;64312;44.738;20.612;2023-04-24T14:30:49;4.68;;;3.65;;
75696;SDS011;64312;44.738;20.612;2023-04-24T14:33:15;5.78;;;3.95;;
75696;SDS011;64312;44.738;20.612;2023-04-24T14:35:41;4.20;;;3.40;;
75696;SDS011;64312;44.738;20.612;2023-04-24T14:38:07;3.22;;;2.92;;
75696;SDS011;64312;44.738;20.612;2023-04-24T14:40:34;3.10;;;2.75;;
75696;SDS011;64312;44.738;20.612;2023-04-24T14:42:59;4.97;;;2.92;;
75696;SDS011;64312;44.738;20.612;2023-04-24T14:45:25;4.38;;;3.10;;